CDT,Max TemperatureF,Mean TemperatureF,Min TemperatureF,Max Dew PointF,MeanDew PointF,Min DewpointF,Max Humidity, Mean Humidity, Min Humidity, Max Sea Level PressureIn, Mean Sea Level PressureIn, Min Sea Level PressureIn, Max VisibilityMiles, Mean VisibilityMiles, Min VisibilityMiles, Max Wind SpeedMPH, Mean Wind SpeedMPH, Max Gust SpeedMPH,PrecipitationIn, CloudCover, Events, WindDirDegrees
2012-5-1,82,70,57,70,63,57,100,83,65,29.86,29.75,29.64,10,9,2,28,12,36,0.40,5,Rain-Thunderstorm,164
2012-5-2,84,77,69,71,67,64,84,75,65,29.78,29.71,29.64,10,10,10,21,11,28,0.00,4,,181
2012-5-3,86,76,66,72,67,61,87,74,61,29.88,29.79,29.73,10,10,10,18,11,28,0.00,3,,149
2012-5-4,89,80,70,72,69,59,93,75,56,29.86,29.78,29.73,10,10,8,21,8,30,0.20,1,Rain-Thunderstorm,177
2012-5-5,89,79,68,71,69,64,100,76,52,29.82,29.78,29.73,10,9,4,21,9,28,0.00,0,,132
2012-5-6,85,76,66,72,68,61,90,80,69,29.93,29.82,29.74,10,9,7,23,9,32,0.00,6,Thunderstorm,77
2012-5-7,74,65,56,63,56,44,90,63,35,30.07,30.00,29.90,10,9,2,23,11,29,0.32,6,Rain-Thunderstorm,355
2012-5-8,76,63,50,49,41,33,77,50,23,30.10,30.05,29.98,10,10,10,18,5,29,0.00,1,,303
2012-5-9,73,60,46,50,44,42,93,64,35,30.12,30.05,29.96,10,10,10,14,3,18,0.00,0,,335
2012-5-10,81,65,49,55,51,47,93,66,39,29.96,29.91,29.84,10,10,10,18,8,23,0.00,0,,158
2012-5-11,80,68,56,63,56,52,93,66,39,30.12,30.02,29.89,10,10,6,14,3,20,0.03,2,Rain-Thunderstorm,186
2012-5-12,70,62,54,55,49,41,93,71,48,30.29,30.23,30.14,10,10,10,20,9,28,T,3,,360
2012-5-13,78,65,51,56,51,46,100,69,38,30.27,30.21,30.15,10,10,10,13,2,16,0.00,1,,43
2012-5-14,81,66,50,55,50,47,100,65,30,30.18,30.11,30.03,10,9,4,8,3,12,0.00,1,,185
2012-5-15,88,70,52,54,51,45,93,59,25,30.06,30.01,29.93,10,10,10,14,4,17,0.00,0,,227
2012-5-16,82,68,54,50,43,39,69,46,23,30.11,30.05,30.00,10,10,10,12,5,16,0.00,0,,41
2012-5-17,89,71,53,59,52,47,83,56,29,30.02,29.94,29.83,10,10,10,21,9,26,0.00,0,,145
2012-5-18,89,76,63,59,56,54,78,56,34,29.88,29.81,29.73,10,10,10,26,13,33,0.00,0,,144
2012-5-19,89,80,70,62,57,51,66,49,31,29.87,29.80,29.76,10,10,10,28,15,36,0.00,0,Thunderstorm,159
2012-5-20,78,69,59,61,54,48,78,59,40,30.21,30.09,29.92,10,10,10,16,9,22,0.00,3,,318
2012-5-21,78,65,51,49,43,39,71,49,27,30.29,30.21,30.11,10,10,10,14,5,18,0.00,0,,46
2012-5-22,85,67,48,50,46,42,89,56,23,30.11,29.95,29.75,10,10,10,18,9,23,0.00,0,,153
2012-5-23,93,79,64,63,56,48,58,45,32,29.73,29.57,29.44,10,10,10,32,16,41,0.00,0,,151
2012-5-24,90,81,71,69,62,55,67,52,37,29.73,29.48,29.36,10,10,10,24,11,32,0.00,4,,168
2012-5-25,91,80,68,74,66,59,84,68,52,29.91,29.83,29.75,10,10,10,22,11,26,0.00,7,,101
2012-5-26,92,84,76,73,70,67,76,64,52,29.87,29.85,29.82,10,10,10,22,13,28,0.00,0,,159
2012-5-27,91,82,73,67,63,57,79,57,34,29.86,29.78,29.67,10,10,10,28,15,33,0.00,0,,176
2012-5-28,93,80,66,64,53,38,58,37,16,29.84,29.74,29.65,10,10,10,20,9,29,0.00,0,,264
2012-5-29,87,70,53,54,49,44,80,52,24,29.96,29.90,29.83,10,10,7,22,6,26,0.32,0,,22
2012-5-30,84,69,54,60,55,50,100,67,34,29.97,29.89,29.76,10,8,1,39,10,46,1.31,3,Rain-Thunderstorm,68
2012-5-31,68,59,50,59,52,46,97,75,52,30.05,29.93,29.81,10,10,10,24,13,32,0.00,4,,331